sensor_id;sensor_type;location;lat;lon;timestamp;temperature;humidity
8412;HTU21D;4243;49.296;11.348;2022-09-03T00:01:36;12.06;118.99
8412;HTU21D;4243;49.296;11.348;2022-09-03T00:04:21;12.08;118.99
8412;HTU21D;4243;49.296;11.348;2022-09-03T00:06:59;12.10;118.99
8412;HTU21D;4243;49.296;11.348;2022-09-03T00:09:36;13.40;1.00
8412;HTU21D;4243;49.296;11.348;2022-09-03T00:09:39;12.12;118.99
8412;HTU21D;4243;49.296;11.348;2022-09-03T00:12:36;12.07;118.99
8412;HTU21D;4243;49.296;11.348;2022-09-03T00:15:07;12.04;118.99
8412;HTU21D;4243;49.296;11.348;2022-09-03T00:17:41;13.20;1.00
8412;HTU21D;4243;49.296;11.348;2022-09-03T00:17:44;12.01;118.99
8412;HTU21D;4243;49.296;11.348;2022-09-03T00:20:19;13.20;1.00
8412;HTU21D;4243;49.296;11.348;2022-09-03T00:20:23;12.05;118.99
8412;HTU21D;4243;49.296;11.348;2022-09-03T00:22:56;13.30;1.00
8412;HTU21D;4243;49.296;11.348;2022-09-03T00:22:59;12.07;118.99
8412;HTU21D;4243;49.296;11.348;2022-09-03T00:25:40;13.30;1.00
8412;HTU21D;4243;49.296;11.348;2022-09-03T00:25:43;12.06;118.99
8412;HTU21D;4243;49.296;11.348;2022-09-03T00:28:19;12.07;118.99
8412;HTU21D;4243;49.296;11.348;2022-09-03T00:31:06;12.05;118.99
8412;HTU21D;4243;49.296;11.348;2022-09-03T00:33:39;13.30;1.00
8412;HTU21D;4243;49.296;11.348;2022-09-03T00:33:40;12.11;118.99
8412;HTU21D;4243;49.296;11.348;2022-09-03T00:36:24;13.20;1.00
8412;HTU21D;4243;49.296;11.348;2022-09-03T00:36:29;12.10;118.99
8412;HTU21D;4243;49.296;11.348;2022-09-03T00:39:01;12.13;118.99
8412;HTU21D;4243;49.296;11.348;2022-09-03T00:41:37;12.06;118.99
8412;HTU21D;4243;49.296;11.348;2022-09-03T00:44:18;12.02;118.99
8412;HTU21D;4243;49.296;11.348;2022-09-03T00:53:21;11.99;118.99
8412;HTU21D;4243;49.296;11.348;2022-09-03T00:58:53;12.01;118.99
8412;HTU21D;4243;49.296;11.348;2022-09-03T01:01:33;12.00;118.99
8412;HTU21D;4243;49.296;11.348;2022-09-03T01:12:28;11.87;118.99
8412;HTU21D;4243;49.296;11.348;2022-09-03T01:21:15;11.89;118.99
8412;HTU21D;4243;49.296;11.348;2022-09-03T01:29:59;11.93;118.99
8412;HTU21D;4243;49.296;11.348;2022-09-03T01:32:51;11.92;118.99
8412;HTU21D;4243;49.296;11.348;2022-09-03T01:38:55;11.89;118.99
8412;HTU21D;4243;49.296;11.348;2022-09-03T01:42:05;11.84;118.99
8412;HTU21D;4243;49.296;11.348;2022-09-03T01:45:20;11.82;118.99
8412;HTU21D;4243;49.296;11.348;2022-09-03T01:48:18;11.82;118.99
8412;HTU21D;4243;49.296;11.348;2022-09-03T01:57:29;11.81;118.99
8412;HTU21D;4243;49.296;11.348;2022-09-03T02:00:11;11.78;118.99
8412;HTU21D;4243;49.296;11.348;2022-09-03T02:02:48;11.72;118.99
8412;HTU21D;4243;49.296;11.348;2022-09-03T02:05:20;12.70;1.00
8412;HTU21D;4243;49.296;11.348;2022-09-03T02:05:24;11.69;118.99
8412;HTU21D;4243;49.296;11.348;2022-09-03T02:07:57;11.71;118.99
8412;HTU21D;4243;49.296;11.348;2022-09-03T02:10:55;11.73;118.99
8412;HTU21D;4243;49.296;11.348;2022-09-03T02:14:02;12.60;1.00
8412;HTU21D;4243;49.296;11.348;2022-09-03T02:14:03;11.73;118.99
8412;HTU21D;4243;49.296;11.348;2022-09-03T02:16:33;11.62;118.99
8412;HTU21D;4243;49.296;11.348;2022-09-03T02:19:06;11.60;118.99
8412;HTU21D;4243;49.296;11.348;2022-09-03T02:21:38;12.50;1.00
8412;HTU21D;4243;49.296;11.348;2022-09-03T02:21:41;11.54;118.99
8412;HTU21D;4243;49.296;11.348;2022-09-03T02:24:13;11.46;118.99
8412;HTU21D;4243;49.296;11.348;2022-09-03T02:24:13;12.40;1.00
8412;HTU21D;4243;49.296;11.348;2022-09-03T02:26:41;11.47;118.99
8412;HTU21D;4243;49.296;11.348;2022-09-03T02:29:08;11.48;118.99
8412;HTU21D;4243;49.296;11.348;2022-09-03T02:31:36;11.51;118.99
8412;HTU21D;4243;49.296;11.348;2022-09-03T02:34:04;11.48;118.99
8412;HTU21D;4243;49.296;11.348;2022-09-03T02:36:34;11.55;118.99
8412;HTU21D;4243;49.296;11.348;2022-09-03T02:39:04;11.54;118.99
8412;HTU21D;4243;49.296;11.348;2022-09-03T02:41:32;11.57;118.99
8412;HTU21D;4243;49.296;11.348;2022-09-03T02:44:17;11.59;118.99
8412;HTU21D;4243;49.296;11.348;2022-09-03T02:47:01;11.60;118.99
8412;HTU21D;4243;49.296;11.348;2022-09-03T02:49:32;11.61;118.99
8412;HTU21D;4243;49.296;11.348;2022-09-03T02:52:08;11.62;118.99
8412;HTU21D;4243;49.296;11.348;2022-09-03T02:54:38;11.59;118.99
8412;HTU21D;4243;49.296;11.348;2022-09-03T02:57:09;11.58;118.99
8412;HTU21D;4243;49.296;11.348;2022-09-03T02:59:39;11.58;118.99
8412;HTU21D;4243;49.296;11.348;2022-09-03T03:02:08;11.62;118.99
8412;HTU21D;4243;49.296;11.348;2022-09-03T03:04:35;11.62;118.99
8412;HTU21D;4243;49.296;11.348;2022-09-03T03:07:03;11.58;118.99
8412;HTU21D;4243;49.296;11.348;2022-09-03T03:09:31;11.58;118.99
8412;HTU21D;4243;49.296;11.348;2022-09-03T03:11:59;11.53;118.99
8412;HTU21D;4243;49.296;11.348;2022-09-03T03:14:27;11.46;118.99
8412;HTU21D;4243;49.296;11.348;2022-09-03T03:16:54;11.48;118.99
8412;HTU21D;4243;49.296;11.348;2022-09-03T03:19:22;11.41;118.99
8412;HTU21D;4243;49.296;11.348;2022-09-03T03:21:49;11.38;118.99
8412;HTU21D;4243;49.296;11.348;2022-09-03T03:24:17;11.38;118.99
8412;HTU21D;4243;49.296;11.348;2022-09-03T03:26:45;11.32;118.99
8412;HTU21D;4243;49.296;11.348;2022-09-03T03:29:15;12.10;1.00
8412;HTU21D;4243;49.296;11.348;2022-09-03T03:29:16;11.26;118.99
8412;HTU21D;4243;49.296;11.348;2022-09-03T03:31:43;11.24;118.99
8412;HTU21D;4243;49.296;11.348;2022-09-03T03:34:11;11.19;118.99
8412;HTU21D;4243;49.296;11.348;2022-09-03T03:36:39;11.20;118.99
8412;HTU21D;4243;49.296;11.348;2022-09-03T03:39:07;11.17;118.99
8412;HTU21D;4243;49.296;11.348;2022-09-03T03:41:37;11.16;118.99
8412;HTU21D;4243;49.296;11.348;2022-09-03T03:44:06;12.10;1.00
8412;HTU21D;4243;49.296;11.348;2022-09-03T03:44:07;11.14;118.99
8412;HTU21D;4243;49.296;11.348;2022-09-03T03:46:39;11.19;118.99
8412;HTU21D;4243;49.296;11.348;2022-09-03T03:49:08;11.16;118.99
8412;HTU21D;4243;49.296;11.348;2022-09-03T03:51:37;11.11;118.99
8412;HTU21D;4243;49.296;11.348;2022-09-03T03:54:05;11.07;118.99
8412;HTU21D;4243;49.296;11.348;2022-09-03T03:56:33;11.11;118.99
8412;HTU21D;4243;49.296;11.348;2022-09-03T03:59:01;11.09;118.99
8412;HTU21D;4243;49.296;11.348;2022-09-03T04:01:29;11.07;118.99
8412;HTU21D;4243;49.296;11.348;2022-09-03T04:03:58;11.01;118.99
8412;HTU21D;4243;49.296;11.348;2022-09-03T04:06:26;11.01;118.99
8412;HTU21D;4243;49.296;11.348;2022-09-03T04:08:54;11.04;118.99
8412;HTU21D;4243;49.296;11.348;2022-09-03T04:11:22;11.01;118.99
8412;HTU21D;4243;49.296;11.348;2022-09-03T04:13:50;10.98;118.99
8412;HTU21D;4243;49.296;11.348;2022-09-03T04:16:24;11.02;118.99
8412;HTU21D;4243;49.296;11.348;2022-09-03T04:18:56;11.01;118.99
8412;HTU21D;4243;49.296;11.348;2022-09-03T04:21:25;12.00;1.00
8412;HTU21D;4243;49.296;11.348;2022-09-03T04:21:27;11.01;118.99
8412;HTU21D;4243;49.296;11.348;2022-09-03T04:23:56;11.09;118.99
8412;HTU21D;4243;49.296;11.348;2022-09-03T04:26:26;11.10;118.99
8412;HTU21D;4243;49.296;11.348;2022-09-03T04:28:58;11.16;118.99
8412;HTU21D;4243;49.296;11.348;2022-09-03T04:31:27;11.23;118.99
8412;HTU21D;4243;49.296;11.348;2022-09-03T04:33:55;11.29;118.99
8412;HTU21D;4243;49.296;11.348;2022-09-03T04:36:24;11.36;118.99
8412;HTU21D;4243;49.296;11.348;2022-09-03T04:38:55;11.42;118.99
8412;HTU21D;4243;49.296;11.348;2022-09-03T04:41:27;11.44;118.99
8412;HTU21D;4243;49.296;11.348;2022-09-03T04:43:57;11.49;118.99
8412;HTU21D;4243;49.296;11.348;2022-09-03T04:46:27;11.53;118.99
8412;HTU21D;4243;49.296;11.348;2022-09-03T04:48:59;11.58;118.99
8412;HTU21D;4243;49.296;11.348;2022-09-03T04:51:27;11.72;118.99
8412;HTU21D;4243;49.296;11.348;2022-09-03T04:53:59;12.40;1.00
8412;HTU21D;4243;49.296;11.348;2022-09-03T04:54:00;11.82;118.99
8412;HTU21D;4243;49.296;11.348;2022-09-03T04:56:30;12.40;1.00
8412;HTU21D;4243;49.296;11.348;2022-09-03T04:56:31;11.84;118.99
8412;HTU21D;4243;49.296;11.348;2022-09-03T04:59:03;11.86;118.99
8412;HTU21D;4243;49.296;11.348;2022-09-03T05:01:33;11.99;118.99
8412;HTU21D;4243;49.296;11.348;2022-09-03T05:04:02;12.07;118.99
8412;HTU21D;4243;49.296;11.348;2022-09-03T05:06:32;12.16;118.99
8412;HTU21D;4243;49.296;11.348;2022-09-03T05:09:00;12.27;118.99
8412;HTU21D;4243;49.296;11.348;2022-09-03T05:11:28;12.41;118.99
8412;HTU21D;4243;49.296;11.348;2022-09-03T05:13:58;12.49;118.99
8412;HTU21D;4243;49.296;11.348;2022-09-03T05:16:27;12.60;118.99
8412;HTU21D;4243;49.296;11.348;2022-09-03T05:18:57;12.69;118.99
8412;HTU21D;4243;49.296;11.348;2022-09-03T05:21:26;12.67;118.99
8412;HTU21D;4243;49.296;11.348;2022-09-03T05:23:54;12.63;118.99
8412;HTU21D;4243;49.296;11.348;2022-09-03T05:26:29;12.60;118.99
8412;HTU21D;4243;49.296;11.348;2022-09-03T05:28:59;12.55;118.99
8412;HTU21D;4243;49.296;11.348;2022-09-03T05:31:29;12.55;118.99
8412;HTU21D;4243;49.296;11.348;2022-09-03T05:34:00;12.61;118.99
8412;HTU21D;4243;49.296;11.348;2022-09-03T05:36:35;12.65;118.99
8412;HTU21D;4243;49.296;11.348;2022-09-03T05:39:04;12.69;118.99
8412;HTU21D;4243;49.296;11.348;2022-09-03T05:41:32;12.67;118.99
8412;HTU21D;4243;49.296;11.348;2022-09-03T05:44:00;12.63;118.99
8412;HTU21D;4243;49.296;11.348;2022-09-03T05:46:29;12.60;1.00
8412;HTU21D;4243;49.296;11.348;2022-09-03T05:46:30;12.55;118.99
8412;HTU21D;4243;49.296;11.348;2022-09-03T05:49:04;12.52;118.99
8412;HTU21D;4243;49.296;11.348;2022-09-03T05:51:33;12.52;118.99
8412;HTU21D;4243;49.296;11.348;2022-09-03T05:54:02;12.50;118.99
8412;HTU21D;4243;49.296;11.348;2022-09-03T05:56:31;12.47;118.99
8412;HTU21D;4243;49.296;11.348;2022-09-03T05:59:03;12.45;118.99
8412;HTU21D;4243;49.296;11.348;2022-09-03T06:01:38;12.44;118.99
8412;HTU21D;4243;49.296;11.348;2022-09-03T06:04:15;12.53;118.99
8412;HTU21D;4243;49.296;11.348;2022-09-03T06:06:44;12.70;56.80
8412;HTU21D;4243;49.296;11.348;2022-09-03T06:06:45;12.56;118.99
8412;HTU21D;4243;49.296;11.348;2022-09-03T06:09:15;12.69;118.99
8412;HTU21D;4243;49.296;11.348;2022-09-03T06:11:45;12.82;118.99
8412;HTU21D;4243;49.296;11.348;2022-09-03T06:14:13;13.20;21.20
8412;HTU21D;4243;49.296;11.348;2022-09-03T06:14:14;12.95;118.99
8412;HTU21D;4243;49.296;11.348;2022-09-03T06:16:44;13.12;118.99
8412;HTU21D;4243;49.296;11.348;2022-09-03T06:19:18;13.40;118.99
8412;HTU21D;4243;49.296;11.348;2022-09-03T06:21:47;13.60;118.99
8412;HTU21D;4243;49.296;11.348;2022-09-03T06:24:19;13.84;118.99
8412;HTU21D;4243;49.296;11.348;2022-09-03T06:26:55;14.08;118.99
8412;HTU21D;4243;49.296;11.348;2022-09-03T06:29:22;14.24;118.99
8412;HTU21D;4243;49.296;11.348;2022-09-03T06:31:50;14.49;118.99
8412;HTU21D;4243;49.296;11.348;2022-09-03T06:34:17;14.64;118.99
8412;HTU21D;4243;49.296;11.348;2022-09-03T06:36:45;14.74;118.99
8412;HTU21D;4243;49.296;11.348;2022-09-03T06:39:12;14.78;118.99
8412;HTU21D;4243;49.296;11.348;2022-09-03T06:41:40;14.77;118.99
8412;HTU21D;4243;49.296;11.348;2022-09-03T06:44:08;14.74;118.99
8412;HTU21D;4243;49.296;11.348;2022-09-03T06:46:40;14.60;1.00
8412;HTU21D;4243;49.296;11.348;2022-09-03T06:46:40;14.78;118.99
8412;HTU21D;4243;49.296;11.348;2022-09-03T06:49:09;14.98;118.99
8412;HTU21D;4243;49.296;11.348;2022-09-03T06:51:38;15.36;118.99
8412;HTU21D;4243;49.296;11.348;2022-09-03T06:54:07;15.86;118.99
8412;HTU21D;4243;49.296;11.348;2022-09-03T06:56:38;16.44;118.99
8412;HTU21D;4243;49.296;11.348;2022-09-03T06:59:12;16.77;118.99
8412;HTU21D;4243;49.296;11.348;2022-09-03T07:01:41;16.50;1.00
8412;HTU21D;4243;49.296;11.348;2022-09-03T07:01:42;16.91;118.99
8412;HTU21D;4243;49.296;11.348;2022-09-03T07:04:13;16.95;118.99
8412;HTU21D;4243;49.296;11.348;2022-09-03T07:06:43;17.03;118.99
8412;HTU21D;4243;49.296;11.348;2022-09-03T07:09:11;16.70;1.00
8412;HTU21D;4243;49.296;11.348;2022-09-03T07:09:11;17.11;118.99
8412;HTU21D;4243;49.296;11.348;2022-09-03T07:11:39;17.29;118.99
8412;HTU21D;4243;49.296;11.348;2022-09-03T07:14:14;17.98;118.99
8412;HTU21D;4243;49.296;11.348;2022-09-03T07:16:46;18.95;118.99
8412;HTU21D;4243;49.296;11.348;2022-09-03T07:19:15;19.60;118.99
8412;HTU21D;4243;49.296;11.348;2022-09-03T07:21:43;20.55;118.99
8412;HTU21D;4243;49.296;11.348;2022-09-03T07:24:17;21.02;118.99
8412;HTU21D;4243;49.296;11.348;2022-09-03T07:26:46;21.13;118.99
8412;HTU21D;4243;49.296;11.348;2022-09-03T07:29:15;21.28;118.99
8412;HTU21D;4243;49.296;11.348;2022-09-03T07:31:46;21.53;118.99
8412;HTU21D;4243;49.296;11.348;2022-09-03T07:34:14;22.36;118.99
8412;HTU21D;4243;49.296;11.348;2022-09-03T07:36:45;22.61;118.99
8412;HTU21D;4243;49.296;11.348;2022-09-03T07:39:15;22.77;118.99
8412;HTU21D;4243;49.296;11.348;2022-09-03T07:41:44;22.75;118.99
8412;HTU21D;4243;49.296;11.348;2022-09-03T07:41:44;19.30;1.00
8412;HTU21D;4243;49.296;11.348;2022-09-03T07:44:14;21.80;118.99
8412;HTU21D;4243;49.296;11.348;2022-09-03T07:46:45;20.98;118.99
8412;HTU21D;4243;49.296;11.348;2022-09-03T07:49:14;20.71;118.99
8412;HTU21D;4243;49.296;11.348;2022-09-03T07:51:41;20.34;118.99
8412;HTU21D;4243;49.296;11.348;2022-09-03T07:54:09;20.85;118.99
8412;HTU21D;4243;49.296;11.348;2022-09-03T07:56:39;21.46;118.99
8412;HTU21D;4243;49.296;11.348;2022-09-03T07:59:07;21.47;118.99
8412;HTU21D;4243;49.296;11.348;2022-09-03T08:03:36;21.35;118.99
8412;HTU21D;4243;49.296;11.348;2022-09-03T08:06:06;21.44;118.99
8412;HTU21D;4243;49.296;11.348;2022-09-03T08:08:35;21.92;118.99
8412;HTU21D;4243;49.296;11.348;2022-09-03T08:08:35;19.40;1.00
8412;HTU21D;4243;49.296;11.348;2022-09-03T08:11:16;19.20;1.00
8412;HTU21D;4243;49.296;11.348;2022-09-03T08:11:18;21.84;118.99
8412;HTU21D;4243;49.296;11.348;2022-09-03T08:13:48;18.90;1.00
8412;HTU21D;4243;49.296;11.348;2022-09-03T08:13:53;21.45;118.99
8412;HTU21D;4243;49.296;11.348;2022-09-03T08:16:23;20.88;118.99
8412;HTU21D;4243;49.296;11.348;2022-09-03T08:18:51;20.76;118.99
8412;HTU21D;4243;49.296;11.348;2022-09-03T08:21:19;20.65;118.99
8412;HTU21D;4243;49.296;11.348;2022-09-03T08:23:48;20.68;118.99
8412;HTU21D;4243;49.296;11.348;2022-09-03T08:26:18;20.81;118.99
8412;HTU21D;4243;49.296;11.348;2022-09-03T08:28:47;21.21;118.99
8412;HTU21D;4243;49.296;11.348;2022-09-03T08:31:18;21.21;118.99
8412;HTU21D;4243;49.296;11.348;2022-09-03T08:33:51;18.60;1.00
8412;HTU21D;4243;49.296;11.348;2022-09-03T08:33:53;21.01;118.99
8412;HTU21D;4243;49.296;11.348;2022-09-03T08:36:29;20.64;118.99
8412;HTU21D;4243;49.296;11.348;2022-09-03T08:38:59;20.46;118.99
8412;HTU21D;4243;49.296;11.348;2022-09-03T08:42:02;20.26;118.99
8412;HTU21D;4243;49.296;11.348;2022-09-03T08:44:49;20.03;118.99
8412;HTU21D;4243;49.296;11.348;2022-09-03T08:47:32;18.30;1.00
8412;HTU21D;4243;49.296;11.348;2022-09-03T08:47:36;20.09;118.99
8412;HTU21D;4243;49.296;11.348;2022-09-03T08:53:05;20.24;118.99
8412;HTU21D;4243;49.296;11.348;2022-09-03T08:58:19;22.81;118.99
8412;HTU21D;4243;49.296;11.348;2022-09-03T09:00:53;24.41;118.99
8412;HTU21D;4243;49.296;11.348;2022-09-03T09:06:35;23.30;1.00
8412;HTU21D;4243;49.296;11.348;2022-09-03T09:09:45;29.76;118.99
8412;HTU21D;4243;49.296;11.348;2022-09-03T09:24:20;23.50;1.00
8412;HTU21D;4243;49.296;11.348;2022-09-03T09:24:22;30.23;118.99
8412;HTU21D;4243;49.296;11.348;2022-09-03T09:26:59;23.50;1.00
8412;HTU21D;4243;49.296;11.348;2022-09-03T09:27:02;30.55;118.99
8412;HTU21D;4243;49.296;11.348;2022-09-03T09:29:40;30.11;118.99
8412;HTU21D;4243;49.296;11.348;2022-09-03T09:32:09;30.19;118.99
8412;HTU21D;4243;49.296;11.348;2022-09-03T09:32:09;23.30;1.00
8412;HTU21D;4243;49.296;11.348;2022-09-03T09:34:39;29.58;118.99
8412;HTU21D;4243;49.296;11.348;2022-09-03T09:37:14;22.70;1.00
8412;HTU21D;4243;49.296;11.348;2022-09-03T09:37:14;29.15;118.99
8412;HTU21D;4243;49.296;11.348;2022-09-03T09:39:58;29.56;118.99
8412;HTU21D;4243;49.296;11.348;2022-09-03T09:42:27;30.63;118.99
8412;HTU21D;4243;49.296;11.348;2022-09-03T09:44:57;31.70;118.99
8412;HTU21D;4243;49.296;11.348;2022-09-03T09:47:38;32.03;118.99
8412;HTU21D;4243;49.296;11.348;2022-09-03T09:50:16;25.40;1.00
8412;HTU21D;4243;49.296;11.348;2022-09-03T09:50:18;32.91;118.99
8412;HTU21D;4243;49.296;11.348;2022-09-03T09:53:08;26.10;1.00
8412;HTU21D;4243;49.296;11.348;2022-09-03T09:53:09;34.09;118.99
8412;HTU21D;4243;49.296;11.348;2022-09-03T09:55:55;32.44;118.99
8412;HTU21D;4243;49.296;11.348;2022-09-03T09:58:30;24.10;1.00
8412;HTU21D;4243;49.296;11.348;2022-09-03T09:58:31;30.84;118.99
8412;HTU21D;4243;49.296;11.348;2022-09-03T10:03:52;31.84;118.99
8412;HTU21D;4243;49.296;11.348;2022-09-03T10:06:24;25.00;1.00
8412;HTU21D;4243;49.296;11.348;2022-09-03T10:06:25;31.63;118.99
8412;HTU21D;4243;49.296;11.348;2022-09-03T10:09:15;24.80;1.00
8412;HTU21D;4243;49.296;11.348;2022-09-03T10:09:17;31.59;118.99
8412;HTU21D;4243;49.296;11.348;2022-09-03T10:12:23;32.94;118.99
8412;HTU21D;4243;49.296;11.348;2022-09-03T10:15:07;25.80;1.00
8412;HTU21D;4243;49.296;11.348;2022-09-03T10:15:11;33.43;118.99
8412;HTU21D;4243;49.296;11.348;2022-09-03T10:23:39;23.70;1.00
8412;HTU21D;4243;49.296;11.348;2022-09-03T10:24:03;29.60;118.99
8412;HTU21D;4243;49.296;11.348;2022-09-03T10:26:42;23.20;1.00
8412;HTU21D;4243;49.296;11.348;2022-09-03T10:26:43;28.56;118.99
8412;HTU21D;4243;49.296;11.348;2022-09-03T10:29:20;28.06;118.99
8412;HTU21D;4243;49.296;11.348;2022-09-03T10:33:04;28.28;118.99
8412;HTU21D;4243;49.296;11.348;2022-09-03T10:35:43;22.80;1.00
8412;HTU21D;4243;49.296;11.348;2022-09-03T10:35:46;27.61;118.99
8412;HTU21D;4243;49.296;11.348;2022-09-03T10:38:28;26.94;118.99
8412;HTU21D;4243;49.296;11.348;2022-09-03T10:44:23;25.74;118.99
8412;HTU21D;4243;49.296;11.348;2022-09-03T10:49:37;25.62;118.99
8412;HTU21D;4243;49.296;11.348;2022-09-03T11:07:21;25.27;118.99
8412;HTU21D;4243;49.296;11.348;2022-09-03T11:10:15;25.07;118.99
8412;HTU21D;4243;49.296;11.348;2022-09-03T11:13:13;24.43;118.99
8412;HTU21D;4243;49.296;11.348;2022-09-03T11:16:10;24.27;118.99
8412;HTU21D;4243;49.296;11.348;2022-09-03T11:19:05;24.24;118.99
8412;HTU21D;4243;49.296;11.348;2022-09-03T11:21:35;24.19;118.99
8412;HTU21D;4243;49.296;11.348;2022-09-03T11:24:38;24.42;118.99
8412;HTU21D;4243;49.296;11.348;2022-09-03T11:27:16;24.42;118.99
8412;HTU21D;4243;49.296;11.348;2022-09-03T11:30:07;24.20;118.99
8412;HTU21D;4243;49.296;11.348;2022-09-03T11:35:53;24.34;118.99
8412;HTU21D;4243;49.296;11.348;2022-09-03T11:38:23;24.47;118.99
8412;HTU21D;4243;49.296;11.348;2022-09-03T11:43:31;24.41;118.99
8412;HTU21D;4243;49.296;11.348;2022-09-03T11:48:43;24.34;118.99
8412;HTU21D;4243;49.296;11.348;2022-09-03T11:54:04;24.31;118.99
8412;HTU21D;4243;49.296;11.348;2022-09-03T11:56:35;24.29;118.99
8412;HTU21D;4243;49.296;11.348;2022-09-03T11:59:18;24.72;118.99
8412;HTU21D;4243;49.296;11.348;2022-09-03T12:02:00;22.20;1.00
8412;HTU21D;4243;49.296;11.348;2022-09-03T12:02:03;24.76;118.99
8412;HTU21D;4243;49.296;11.348;2022-09-03T12:04:55;24.87;118.99
8412;HTU21D;4243;49.296;11.348;2022-09-03T12:07:55;22.70;1.00
8412;HTU21D;4243;49.296;11.348;2022-09-03T12:08:02;25.40;118.99
8412;HTU21D;4243;49.296;11.348;2022-09-03T12:10:50;22.90;1.00
8412;HTU21D;4243;49.296;11.348;2022-09-03T12:11:05;25.93;118.99
8412;HTU21D;4243;49.296;11.348;2022-09-03T12:14:01;26.46;118.99
8412;HTU21D;4243;49.296;11.348;2022-09-03T12:19:46;29.74;118.99
8412;HTU21D;4243;49.296;11.348;2022-09-03T12:22:20;24.60;1.00
8412;HTU21D;4243;49.296;11.348;2022-09-03T12:22:21;29.01;118.99
8412;HTU21D;4243;49.296;11.348;2022-09-03T12:24:51;28.43;118.99
8412;HTU21D;4243;49.296;11.348;2022-09-03T12:27:24;29.27;118.99
8412;HTU21D;4243;49.296;11.348;2022-09-03T12:29:59;29.07;118.99
8412;HTU21D;4243;49.296;11.348;2022-09-03T12:32:34;28.61;118.99
8412;HTU21D;4243;49.296;11.348;2022-09-03T12:35:20;23.80;1.00
8412;HTU21D;4243;49.296;11.348;2022-09-03T12:35:22;28.11;118.99
8412;HTU21D;4243;49.296;11.348;2022-09-03T12:38:13;28.71;118.99
8412;HTU21D;4243;49.296;11.348;2022-09-03T12:40:45;28.60;118.99
8412;HTU21D;4243;49.296;11.348;2022-09-03T12:43:32;28.50;118.99
8412;HTU21D;4243;49.296;11.348;2022-09-03T12:46:12;28.04;118.99
8412;HTU21D;4243;49.296;11.348;2022-09-03T12:48:56;27.61;118.99
8412;HTU21D;4243;49.296;11.348;2022-09-03T12:51:56;26.67;118.99
8412;HTU21D;4243;49.296;11.348;2022-09-03T12:54:33;26.26;118.99
8412;HTU21D;4243;49.296;11.348;2022-09-03T12:57:01;26.13;118.99
8412;HTU21D;4243;49.296;11.348;2022-09-03T12:59:32;25.86;118.99
8412;HTU21D;4243;49.296;11.348;2022-09-03T13:02:12;25.73;118.99
8412;HTU21D;4243;49.296;11.348;2022-09-03T13:04:46;25.48;118.99
8412;HTU21D;4243;49.296;11.348;2022-09-03T13:07:34;25.37;118.99
8412;HTU21D;4243;49.296;11.348;2022-09-03T13:10:25;25.10;118.99
8412;HTU21D;4243;49.296;11.348;2022-09-03T13:13:02;24.53;118.99
8412;HTU21D;4243;49.296;11.348;2022-09-03T13:15:47;24.08;118.99
8412;HTU21D;4243;49.296;11.348;2022-09-03T13:18:31;23.65;118.99
8412;HTU21D;4243;49.296;11.348;2022-09-03T13:21:18;23.17;118.99
8412;HTU21D;4243;49.296;11.348;2022-09-03T13:24:04;22.60;118.99
8412;HTU21D;4243;49.296;11.348;2022-09-03T13:27:02;21.98;118.99
8412;HTU21D;4243;49.296;11.348;2022-09-03T13:30:07;21.63;118.99
8412;HTU21D;4243;49.296;11.348;2022-09-03T13:35:53;21.37;118.99
8412;HTU21D;4243;49.296;11.348;2022-09-03T13:38:50;21.27;118.99
8412;HTU21D;4243;49.296;11.348;2022-09-03T13:41:28;21.07;118.99
8412;HTU21D;4243;49.296;11.348;2022-09-03T13:44:10;20.43;118.99
8412;HTU21D;4243;49.296;11.348;2022-09-03T13:49:43;19.35;118.99
8412;HTU21D;4243;49.296;11.348;2022-09-03T13:52:40;18.99;118.99
8412;HTU21D;4243;49.296;11.348;2022-09-03T13:55:32;18.80;118.99
8412;HTU21D;4243;49.296;11.348;2022-09-03T13:58:26;18.69;118.99
8412;HTU21D;4243;49.296;11.348;2022-09-03T14:03:33;18.58;118.99
8412;HTU21D;4243;49.296;11.348;2022-09-03T14:09:28;18.40;118.99
8412;HTU21D;4243;49.296;11.348;2022-09-03T14:20:36;19.50;1.00
8412;HTU21D;4243;49.296;11.348;2022-09-03T14:20:46;18.42;118.99
8412;HTU21D;4243;49.296;11.348;2022-09-03T14:23:41;18.48;118.99
8412;HTU21D;4243;49.296;11.348;2022-09-03T14:26:26;19.70;1.00
8412;HTU21D;4243;49.296;11.348;2022-09-03T14:26:34;18.73;118.99
8412;HTU21D;4243;49.296;11.348;2022-09-03T14:32:14;19.76;118.99
8412;HTU21D;4243;49.296;11.348;2022-09-03T14:35:18;20.17;118.99
8412;HTU21D;4243;49.296;11.348;2022-09-03T14:38:29;20.41;118.99
8412;HTU21D;4243;49.296;11.348;2022-09-03T14:44:05;20.51;118.99
8412;HTU21D;4243;49.296;11.348;2022-09-03T14:46:55;20.46;118.99
8412;HTU21D;4243;49.296;11.348;2022-09-03T14:49:50;20.51;118.99
8412;HTU21D;4243;49.296;11.348;2022-09-03T14:55:29;19.80;1.00
8412;HTU21D;4243;49.296;11.348;2022-09-03T14:55:41;20.51;118.99
8412;HTU21D;4243;49.296;11.348;2022-09-03T15:00:53;20.53;118.99
8412;HTU21D;4243;49.296;11.348;2022-09-03T15:06:40;20.00;1.00
8412;HTU21D;4243;49.296;11.348;2022-09-03T15:12:18;20.00;1.00
8412;HTU21D;4243;49.296;11.348;2022-09-03T15:12:22;20.62;118.99
8412;HTU21D;4243;49.296;11.348;2022-09-03T15:15:00;20.00;1.00
8412;HTU21D;4243;49.296;11.348;2022-09-03T15:15:05;20.66;118.99
8412;HTU21D;4243;49.296;11.348;2022-09-03T15:17:42;20.71;118.99
8412;HTU21D;4243;49.296;11.348;2022-09-03T15:32:03;20.43;118.99
8412;HTU21D;4243;49.296;11.348;2022-09-03T15:37:46;20.35;118.99
8412;HTU21D;4243;49.296;11.348;2022-09-03T15:40:40;19.60;1.00
8412;HTU21D;4243;49.296;11.348;2022-09-03T15:40:47;20.19;118.99
8412;HTU21D;4243;49.296;11.348;2022-09-03T15:43:30;19.50;1.00
8412;HTU21D;4243;49.296;11.348;2022-09-03T15:43:32;20.06;118.99
8412;HTU21D;4243;49.296;11.348;2022-09-03T15:46:09;20.02;118.99
8412;HTU21D;4243;49.296;11.348;2022-09-03T15:48:59;19.94;118.99
8412;HTU21D;4243;49.296;11.348;2022-09-03T15:54:35;19.48;118.99
8412;HTU21D;4243;49.296;11.348;2022-09-03T15:57:09;19.39;118.99
8412;HTU21D;4243;49.296;11.348;2022-09-03T16:00:00;19.41;118.99
8412;HTU21D;4243;49.296;11.348;2022-09-03T16:09:07;19.75;118.99
8412;HTU21D;4243;49.296;11.348;2022-09-03T16:15:03;19.70;118.99
8412;HTU21D;4243;49.296;11.348;2022-09-03T16:17:43;19.71;118.99
8412;HTU21D;4243;49.296;11.348;2022-09-03T16:29:00;19.74;118.99
8412;HTU21D;4243;49.296;11.348;2022-09-03T16:40:53;19.77;118.99
8412;HTU21D;4243;49.296;11.348;2022-09-03T16:52:20;19.47;118.99
8412;HTU21D;4243;49.296;11.348;2022-09-03T16:55:31;19.28;118.99
8412;HTU21D;4243;49.296;11.348;2022-09-03T17:04:26;18.27;118.99
8412;HTU21D;4243;49.296;11.348;2022-09-03T17:09:46;17.85;118.99
8412;HTU21D;4243;49.296;11.348;2022-09-03T17:15:46;17.58;118.99
8412;HTU21D;4243;49.296;11.348;2022-09-03T17:24:17;17.19;118.99
8412;HTU21D;4243;49.296;11.348;2022-09-03T17:32:57;16.96;118.99
8412;HTU21D;4243;49.296;11.348;2022-09-03T17:36:12;16.82;118.99
8412;HTU21D;4243;49.296;11.348;2022-09-03T17:38:59;16.78;118.99
8412;HTU21D;4243;49.296;11.348;2022-09-03T17:47:32;16.75;118.99
8412;HTU21D;4243;49.296;11.348;2022-09-03T17:50:22;16.69;118.99
8412;HTU21D;4243;49.296;11.348;2022-09-03T17:53:16;16.61;118.99